createdAt,value
2023-04-01T00:00:21.670Z,12.22
2023-04-01T00:02:49.521Z,12.19
2023-04-01T00:05:18.344Z,12.16
2023-04-01T00:07:46.690Z,12.15
2023-04-01T00:10:14.625Z,12.15
2023-04-01T00:12:43.071Z,12.15
2023-04-01T00:15:13.013Z,12.13
2023-04-01T00:17:42.086Z,12.11
2023-04-01T00:20:10.634Z,12.12
2023-04-01T00:22:38.379Z,12.12
2023-04-01T00:25:06.963Z,12.10
2023-04-01T00:27:34.884Z,12.09
2023-04-01T00:30:02.915Z,12.09
2023-04-01T00:32:31.586Z,12.09
2023-04-01T00:35:01.099Z,12.08
2023-04-01T00:37:29.210Z,12.08
2023-04-01T00:39:57.675Z,12.07
2023-04-01T00:42:26.833Z,12.07
2023-04-01T00:44:56.673Z,12.01
2023-04-01T00:47:26.235Z,12.03
2023-04-01T00:49:56.616Z,12.10
2023-04-01T00:52:27.742Z,12.05
2023-04-01T00:55:02.083Z,12.03
2023-04-01T00:57:35.699Z,12.00
2023-04-01T01:00:03.470Z,11.99
2023-04-01T01:02:33.661Z,11.97
2023-04-01T01:05:01.426Z,11.97
2023-04-01T01:07:39.696Z,11.96
2023-04-01T01:10:13.495Z,11.96
2023-04-01T01:12:46.493Z,11.96
2023-04-01T01:15:21.749Z,11.96
2023-04-01T01:17:57.834Z,11.95
2023-04-01T01:20:42.722Z,11.93
2023-04-01T01:23:55.301Z,11.91
2023-04-01T01:26:42.211Z,11.90
2023-04-01T01:29:19.579Z,11.89
2023-04-01T01:31:58.121Z,11.90
2023-04-01T01:34:36.649Z,11.87
2023-04-01T01:37:12.512Z,11.87
2023-04-01T01:39:42.724Z,11.87
2023-04-01T01:42:15.888Z,11.88
2023-04-01T01:44:46.306Z,11.87
2023-04-01T01:47:16.555Z,11.87
2023-04-01T01:49:45.491Z,11.87
2023-04-01T01:52:15.612Z,11.86
2023-04-01T01:54:49.756Z,11.85
2023-04-01T01:57:19.510Z,11.85
2023-04-01T01:59:50.707Z,11.85
2023-04-01T02:02:19.602Z,11.83
2023-04-01T02:04:48.472Z,11.84
2023-04-01T02:07:22.756Z,11.82
2023-04-01T02:09:51.479Z,11.82
2023-04-01T02:12:21.362Z,11.83
2023-04-01T02:14:54.408Z,11.83
2023-04-01T02:17:24.523Z,11.83
2023-04-01T02:19:55.650Z,11.82
2023-04-01T02:22:28.261Z,11.81
2023-04-01T02:25:00.276Z,11.81
2023-04-01T02:27:28.066Z,11.78
2023-04-01T02:29:55.952Z,11.78
2023-04-01T02:32:23.922Z,11.77
2023-04-01T02:34:51.669Z,11.77
2023-04-01T02:37:19.856Z,11.76
2023-04-01T02:39:48.917Z,11.76
2023-04-01T02:42:16.792Z,11.74
2023-04-01T02:44:44.554Z,11.74
2023-04-01T02:47:12.258Z,11.74
2023-04-01T02:49:39.974Z,11.72
2023-04-01T02:52:07.650Z,11.71
2023-04-01T02:54:35.385Z,11.71
2023-04-01T02:57:04.674Z,11.69
2023-04-01T02:59:32.388Z,11.70
2023-04-01T03:02:00.410Z,11.68
2023-04-01T03:04:28.124Z,11.69
2023-04-01T03:06:56.313Z,11.66
2023-04-01T03:09:24.076Z,11.65
2023-04-01T03:11:51.803Z,11.66
2023-04-01T03:14:20.866Z,11.64
2023-04-01T03:16:48.617Z,11.66
2023-04-01T03:19:16.444Z,11.65
2023-04-01T03:21:44.194Z,11.64
2023-04-01T03:24:11.900Z,11.63
2023-04-01T03:26:39.639Z,11.63
2023-04-01T03:29:07.492Z,11.62
2023-04-01T03:31:36.583Z,11.61
2023-04-01T03:34:04.294Z,11.61
2023-04-01T03:36:32.048Z,11.60
2023-04-01T03:38:59.754Z,11.59
2023-04-01T03:41:27.925Z,11.61
2023-04-01T03:43:55.942Z,11.59
2023-04-01T03:46:24.523Z,11.57
2023-04-01T03:48:53.595Z,11.59
2023-04-01T03:51:21.329Z,11.59
2023-04-01T03:53:49.301Z,11.57
2023-04-01T03:56:17.017Z,11.58
2023-04-01T03:58:44.710Z,11.58
2023-04-01T04:01:21.002Z,11.57
2023-04-01T04:03:50.171Z,11.55
2023-04-01T04:06:21.128Z,11.55
2023-04-01T04:08:48.848Z,11.55
2023-04-01T04:11:16.846Z,11.54
2023-04-01T04:13:44.953Z,11.52
2023-04-01T04:16:13.242Z,11.52
2023-04-01T04:18:41.050Z,11.51
2023-04-01T04:21:08.747Z,11.50
2023-04-01T04:23:38.267Z,11.47
2023-04-01T04:26:07.501Z,11.43
2023-04-01T04:28:36.107Z,11.43
2023-04-01T04:31:05.919Z,11.41
2023-04-01T04:33:33.748Z,11.41
2023-04-01T04:36:01.695Z,11.43
2023-04-01T04:38:29.622Z,11.43
2023-04-01T04:40:58.775Z,11.43
2023-04-01T04:43:26.651Z,11.44
2023-04-01T04:45:54.416Z,11.42
2023-04-01T04:48:22.105Z,11.42
2023-04-01T04:50:50.946Z,11.41
2023-04-01T04:53:20.476Z,11.42
2023-04-01T04:55:49.901Z,11.40
2023-04-01T04:58:19.743Z,11.36
2023-04-01T05:00:47.697Z,11.36
2023-04-01T05:03:16.003Z,11.34
2023-04-01T05:05:51.228Z,11.33
2023-04-01T05:08:19.272Z,11.33
2023-04-01T05:10:47.021Z,11.34
2023-04-01T05:13:14.706Z,11.34
2023-04-01T05:15:43.844Z,11.34
2023-04-01T05:18:11.543Z,11.36
2023-04-01T05:20:39.317Z,11.35
2023-04-01T05:23:07.035Z,11.32
2023-04-01T05:25:35.105Z,11.32
2023-04-01T05:28:05.794Z,11.34
2023-04-01T05:30:33.519Z,11.33
2023-04-01T05:33:02.684Z,11.32
2023-04-01T05:35:30.606Z,11.33
2023-04-01T05:37:58.399Z,11.30
2023-04-01T05:40:26.201Z,11.30
2023-04-01T05:42:53.943Z,11.30
2023-04-01T05:45:22.232Z,11.32
2023-04-01T05:47:50.021Z,11.32
2023-04-01T05:50:19.419Z,11.43
2023-04-01T05:52:47.206Z,11.55
2023-04-01T05:55:14.898Z,11.71
2023-04-01T05:57:42.616Z,11.86
2023-04-01T06:00:11.605Z,12.08
2023-04-01T06:02:40.102Z,12.24
2023-04-01T06:05:16.466Z,12.37
2023-04-01T06:07:45.646Z,12.52
2023-04-01T06:10:16.205Z,12.62
2023-04-01T06:13:04.975Z,12.58
2023-04-01T06:15:41.773Z,12.49
2023-04-01T06:18:34.356Z,12.37
2023-04-01T06:21:08.679Z,12.16
2023-04-01T06:23:53.982Z,12.02
2023-04-01T06:26:32.077Z,11.90
2023-04-01T06:29:18.542Z,11.81
2023-04-01T06:32:10.346Z,11.74
2023-04-01T06:34:52.659Z,11.67
2023-04-01T06:37:46.065Z,11.65
2023-04-01T06:40:46.315Z,11.61
2023-04-01T06:43:21.540Z,11.58
2023-04-01T06:45:56.618Z,11.47
2023-04-01T06:48:41.180Z,11.34
2023-04-01T06:51:20.300Z,11.36
2023-04-01T06:53:56.183Z,11.34
2023-04-01T06:56:28.521Z,11.40
2023-04-01T06:59:00.534Z,11.41
2023-04-01T07:01:33.110Z,11.41
2023-04-01T07:04:04.277Z,11.39
2023-04-01T07:06:34.386Z,11.37
2023-04-01T07:09:06.335Z,11.33
2023-04-01T07:11:37.832Z,11.35
2023-04-01T07:14:14.223Z,11.35
2023-04-01T07:16:46.082Z,11.35
2023-04-01T07:19:20.764Z,11.35
2023-04-01T07:21:52.171Z,11.35
2023-04-01T07:24:26.037Z,11.34
2023-04-01T07:26:57.858Z,11.33
2023-04-01T07:29:26.999Z,11.32
2023-04-01T07:32:23.873Z,11.32
2023-04-01T07:35:15.341Z,11.33
2023-04-01T07:37:52.288Z,11.34
2023-04-01T07:40:31.109Z,11.33
2023-04-01T07:43:16.572Z,11.33
2023-04-01T07:45:50.886Z,11.32
2023-04-01T07:48:28.560Z,11.34
2023-04-01T07:51:03.932Z,11.30
2023-04-01T07:53:38.799Z,11.25
2023-04-01T07:56:12.275Z,11.32
2023-04-01T07:58:53.388Z,11.28
2023-04-01T08:01:29.804Z,11.28
2023-04-01T08:04:15.630Z,11.28
2023-04-01T08:06:50.090Z,11.28
2023-04-01T08:09:27.407Z,11.30
2023-04-01T08:12:06.072Z,11.31
2023-04-01T08:14:44.852Z,11.32
2023-04-01T08:17:19.579Z,11.33
2023-04-01T08:20:01.973Z,11.21
2023-04-01T08:22:34.278Z,11.22
2023-04-01T08:25:08.538Z,11.25
2023-04-01T08:27:41.414Z,11.27
2023-04-01T08:30:20.566Z,11.30
2023-04-01T08:32:54.217Z,11.32
2023-04-01T08:35:32.061Z,11.33
2023-04-01T08:38:08.234Z,11.35
2023-04-01T08:40:58.373Z,11.38
2023-04-01T08:43:43.641Z,11.38
2023-04-01T08:46:39.226Z,11.38
2023-04-01T08:49:18.983Z,11.41
2023-04-01T08:52:20.665Z,11.40
2023-04-01T08:55:26.885Z,11.41
2023-04-01T08:58:17.844Z,11.41
2023-04-01T09:00:51.532Z,11.43
2023-04-01T09:03:41.393Z,11.46
2023-04-01T09:06:28.942Z,11.51
2023-04-01T09:09:15.297Z,11.50
2023-04-01T09:12:01.313Z,11.50
2023-04-01T09:14:47.962Z,11.46
2023-04-01T09:17:55.735Z,11.47
2023-04-01T09:20:54.880Z,11.49
2023-04-01T09:23:53.934Z,11.49
2023-04-01T09:26:36.945Z,11.49
2023-04-01T09:29:16.225Z,11.46
2023-04-01T09:32:17.226Z,11.40
2023-04-01T09:34:56.687Z,11.43
2023-04-01T09:37:36.145Z,11.43
2023-04-01T09:40:23.365Z,11.45
2023-04-01T09:43:32.053Z,11.46
2023-04-01T09:46:20.995Z,11.47
2023-04-01T09:49:21.532Z,11.48
2023-04-01T09:52:03.396Z,11.46
2023-04-01T09:54:45.867Z,11.44
2023-04-01T09:58:08.155Z,11.48
2023-04-01T10:01:02.852Z,11.52
2023-04-01T10:04:04.436Z,11.49
2023-04-01T10:07:07.514Z,11.53
2023-04-01T10:10:11.980Z,11.52
2023-04-01T10:13:19.081Z,11.54
2023-04-01T10:16:37.301Z,11.53
2023-04-01T10:19:30.624Z,11.54
2023-04-01T10:22:16.228Z,11.57
2023-04-01T10:25:06.316Z,11.59
2023-04-01T10:27:59.956Z,11.60
2023-04-01T10:31:04.205Z,11.60
2023-04-01T10:34:10.122Z,11.50
2023-04-01T10:36:54.185Z,11.55
2023-04-01T10:39:40.234Z,11.55
2023-04-01T10:42:47.218Z,11.58
2023-04-01T10:45:40.298Z,11.61
2023-04-01T10:48:33.797Z,11.62
2023-04-01T10:51:18.100Z,11.62
2023-04-01T10:54:03.894Z,11.54
2023-04-01T10:56:52.158Z,11.53
2023-04-01T10:59:37.944Z,11.53
2023-04-01T11:02:44.463Z,11.53
2023-04-01T11:05:48.938Z,11.54
2023-04-01T11:08:53.956Z,11.59
2023-04-01T11:11:57.627Z,11.61
2023-04-01T11:14:56.992Z,11.64
2023-04-01T11:18:00.500Z,11.63
2023-04-01T11:20:53.709Z,11.65
2023-04-01T11:23:51.983Z,11.65
2023-04-01T11:26:47.156Z,11.64
2023-04-01T11:29:34.919Z,11.65
2023-04-01T11:32:16.249Z,11.65
2023-04-01T11:34:59.408Z,11.65
2023-04-01T11:37:38.252Z,11.63
2023-04-01T11:40:25.676Z,11.61
2023-04-01T11:43:03.143Z,11.62
2023-04-01T11:45:38.691Z,11.67
2023-04-01T11:48:36.476Z,11.70
2023-04-01T11:51:11.919Z,11.74
2023-04-01T11:53:50.422Z,11.79
2023-04-01T11:56:41.631Z,11.79
2023-04-01T11:59:41.471Z,11.81
2023-04-01T12:02:21.076Z,11.79
2023-04-01T12:05:00.251Z,11.78
2023-04-01T12:07:47.688Z,11.80
2023-04-01T12:10:22.855Z,11.78
2023-04-01T12:13:01.932Z,11.74
2023-04-01T12:15:39.004Z,11.84
2023-04-01T12:18:14.914Z,11.92
2023-04-01T12:20:51.462Z,12.08
2023-04-01T12:23:43.607Z,12.28
2023-04-01T12:26:42.618Z,12.46
2023-04-01T12:29:26.169Z,12.61
2023-04-01T12:31:58.445Z,12.82
2023-04-01T12:34:59.144Z,13.02
2023-04-01T12:37:38.313Z,13.20
2023-04-01T12:40:25.688Z,13.34
2023-04-01T12:43:04.174Z,13.31
2023-04-01T12:45:33.859Z,13.19
2023-04-01T12:48:16.516Z,13.06
2023-04-01T12:51:07.739Z,12.91
2023-04-01T12:53:48.308Z,12.79
2023-04-01T12:56:26.544Z,12.69
2023-04-01T12:59:20.270Z,12.60
2023-04-01T13:02:01.917Z,12.53
2023-04-01T13:04:49.336Z,12.42
2023-04-01T13:07:53.851Z,12.35
2023-04-01T13:10:33.969Z,12.30
2023-04-01T13:13:18.234Z,12.25
2023-04-01T13:15:53.690Z,12.20
2023-04-01T13:18:33.021Z,12.19
2023-04-01T13:21:08.133Z,12.19
2023-04-01T13:23:48.248Z,12.18
2023-04-01T13:26:23.876Z,12.16
2023-04-01T13:29:01.023Z,12.12
2023-04-01T13:31:41.276Z,12.09
2023-04-01T13:34:24.122Z,12.08
2023-04-01T13:37:05.044Z,12.07
2023-04-01T13:39:47.280Z,12.05
2023-04-01T13:42:26.274Z,11.96
2023-04-01T13:44:59.425Z,12.07
2023-04-01T13:47:53.464Z,12.06
2023-04-01T13:51:00.449Z,12.04
2023-04-01T13:53:53.627Z,12.14
2023-04-01T13:56:36.755Z,12.32
2023-04-01T13:59:42.719Z,12.44
2023-04-01T14:02:30.365Z,12.61
2023-04-01T14:05:16.818Z,12.83
2023-04-01T14:07:57.384Z,12.84
2023-04-01T14:10:32.538Z,12.71
2023-04-01T14:13:09.696Z,12.67
2023-04-01T14:16:02.187Z,12.58
2023-04-01T14:18:55.008Z,12.47
2023-04-01T14:21:36.261Z,12.41
2023-04-01T14:24:38.110Z,12.32
2023-04-01T14:27:26.095Z,12.24
2023-04-01T14:30:08.268Z,12.20
2023-04-01T14:32:48.716Z,12.19
2023-04-01T14:35:33.024Z,12.16
2023-04-01T14:38:23.544Z,12.14
2023-04-01T14:40:58.077Z,12.13
2023-04-01T14:44:05.782Z,12.11
2023-04-01T14:46:56.920Z,12.08
2023-04-01T14:49:32.963Z,12.06
2023-04-01T14:52:12.700Z,12.04
2023-04-01T14:54:43.875Z,12.02
2023-04-01T14:57:14.311Z,12.01
2023-04-01T14:59:47.883Z,11.99
2023-04-01T15:02:32.238Z,11.96
2023-04-01T15:05:12.805Z,11.92
2023-04-01T15:08:02.929Z,11.91
2023-04-01T15:10:53.170Z,11.89
2023-04-01T15:13:38.569Z,11.84
2023-04-01T15:16:20.067Z,11.84
2023-04-01T15:18:59.966Z,11.84
2023-04-01T15:21:44.573Z,11.83
2023-04-01T15:24:22.420Z,11.82
2023-04-01T15:27:09.178Z,11.82
2023-04-01T15:30:02.326Z,11.83
2023-04-01T15:32:42.325Z,11.83
2023-04-01T15:35:21.915Z,11.83
2023-04-01T15:37:56.935Z,11.81
2023-04-01T15:40:32.473Z,11.81
2023-04-01T15:43:23.162Z,11.80
2023-04-01T15:45:59.293Z,11.79
2023-04-01T15:48:52.965Z,11.81
2023-04-01T15:51:38.498Z,11.81
2023-04-01T15:54:40.495Z,11.81
2023-04-01T15:57:22.304Z,11.76
2023-04-01T16:00:04.139Z,11.76
2023-04-01T16:02:37.084Z,11.73
2023-04-01T16:05:18.833Z,11.76
2023-04-01T16:08:02.341Z,11.76
2023-04-01T16:10:45.898Z,11.78
2023-04-01T16:13:37.086Z,11.79
2023-04-01T16:16:13.920Z,11.79
2023-04-01T16:18:54.768Z,11.77
2023-04-01T16:21:38.279Z,11.75
2023-04-01T16:24:16.128Z,11.75
2023-04-01T16:26:50.879Z,11.73
2023-04-01T16:29:29.917Z,11.72
2023-04-01T16:32:16.671Z,11.73
2023-04-01T16:34:49.758Z,11.73
2023-04-01T16:37:21.977Z,11.75
2023-04-01T16:39:55.492Z,11.76
2023-04-01T16:42:36.290Z,11.76
2023-04-01T16:45:21.919Z,11.77
2023-04-01T16:47:52.976Z,11.77
2023-04-01T16:50:24.394Z,11.76
2023-04-01T16:53:02.055Z,11.77
2023-04-01T16:55:44.284Z,11.77
2023-04-01T16:58:16.439Z,11.76
2023-04-01T17:00:52.735Z,11.75
2023-04-01T17:03:28.897Z,11.77
2023-04-01T17:06:14.322Z,11.77
2023-04-01T17:08:58.372Z,11.76
2023-04-01T17:11:29.961Z,11.73
2023-04-01T17:14:12.628Z,11.71
2023-04-01T17:17:12.453Z,11.70
2023-04-01T17:19:49.438Z,11.70
2023-04-01T17:22:28.821Z,11.71
2023-04-01T17:25:15.719Z,11.72
2023-04-01T17:27:52.907Z,11.67
2023-04-01T17:30:36.116Z,11.65
2023-04-01T17:33:34.820Z,11.63
2023-04-01T17:36:11.121Z,11.62
2023-04-01T17:38:56.926Z,11.58
2023-04-01T17:41:33.779Z,11.61
2023-04-01T17:44:16.282Z,11.60
2023-04-01T17:47:05.104Z,11.60
2023-04-01T17:49:40.388Z,11.60
2023-04-01T17:52:18.803Z,11.60
2023-04-01T17:54:53.463Z,11.59
2023-04-01T17:57:35.672Z,11.59
2023-04-01T18:00:16.426Z,11.58
2023-04-01T18:02:56.090Z,11.58
2023-04-01T18:05:42.721Z,11.58
2023-04-01T18:08:17.399Z,11.57
2023-04-01T18:11:00.822Z,11.55
2023-04-01T18:13:56.564Z,11.57
2023-04-01T18:16:40.446Z,11.56
2023-04-01T18:19:16.221Z,11.54
2023-04-01T18:21:49.877Z,11.58
2023-04-01T18:24:25.039Z,11.63
2023-04-01T18:27:02.927Z,11.66
2023-04-01T18:29:38.161Z,11.70
2023-04-01T18:32:28.887Z,11.70
2023-04-01T18:35:03.451Z,11.70
2023-04-01T18:37:36.849Z,11.72
2023-04-01T18:40:19.106Z,11.70
2023-04-01T18:42:57.946Z,11.71
2023-04-01T18:45:31.018Z,11.71
2023-04-01T18:48:13.085Z,11.69
2023-04-01T18:50:46.069Z,11.67
2023-04-01T18:53:24.485Z,11.68
2023-04-01T18:55:55.769Z,11.70
2023-04-01T18:58:34.292Z,11.74
2023-04-01T19:01:09.878Z,11.77
2023-04-01T19:03:45.332Z,11.78
2023-04-01T19:06:22.216Z,11.78
2023-04-01T19:08:56.304Z,11.77
2023-04-01T19:11:38.323Z,11.76
2023-04-01T19:14:17.725Z,11.74
2023-04-01T19:16:56.111Z,11.76
2023-04-01T19:19:45.273Z,11.74
2023-04-01T19:22:24.097Z,11.73
2023-04-01T19:25:11.829Z,11.69
2023-04-01T19:27:45.613Z,11.73
2023-04-01T19:30:30.345Z,11.70
2023-04-01T19:33:09.127Z,11.71
2023-04-01T19:35:45.487Z,11.70
2023-04-01T19:38:21.506Z,11.67
2023-04-01T19:40:56.266Z,11.66
2023-04-01T19:43:52.363Z,11.64
2023-04-01T19:46:28.024Z,11.63
2023-04-01T19:49:15.625Z,11.60
2023-04-01T19:51:50.820Z,11.60
2023-04-01T19:54:30.546Z,11.60
2023-04-01T19:57:07.256Z,11.56
2023-04-01T19:59:39.388Z,11.55
2023-04-01T20:02:39.675Z,11.54
2023-04-01T20:05:27.220Z,11.52
2023-04-01T20:08:02.191Z,11.53
2023-04-01T20:10:40.494Z,11.54
2023-04-01T20:13:21.994Z,11.54
2023-04-01T20:16:02.156Z,11.50
2023-04-01T20:18:39.579Z,11.46
2023-04-01T20:21:18.889Z,11.46
2023-04-01T20:23:52.558Z,11.43
2023-04-01T20:26:24.538Z,11.37
2023-04-01T20:29:09.222Z,11.38
2023-04-01T20:31:41.197Z,11.39
2023-04-01T20:34:37.553Z,11.39
2023-04-01T20:37:22.516Z,11.39
2023-04-01T20:40:25.626Z,11.36
2023-04-01T20:43:16.959Z,11.36
2023-04-01T20:45:53.456Z,11.34
2023-04-01T20:48:43.831Z,11.31
2023-04-01T20:51:16.299Z,11.26
2023-04-01T20:53:50.640Z,11.24
2023-04-01T20:56:44.854Z,11.22
2023-04-01T20:59:40.903Z,11.23
2023-04-01T21:02:24.846Z,11.23
2023-04-01T21:05:21.449Z,11.24
2023-04-01T21:07:55.042Z,11.24
2023-04-01T21:10:34.892Z,11.25
2023-04-01T21:13:12.288Z,11.24
2023-04-01T21:15:58.162Z,11.25
2023-04-01T21:18:43.514Z,11.22
2023-04-01T21:21:27.120Z,11.22
2023-04-01T21:24:28.019Z,11.22
2023-04-01T21:27:04.734Z,11.22
2023-04-01T21:29:44.840Z,11.19
2023-04-01T21:32:31.375Z,11.12
2023-04-01T21:35:08.723Z,11.14
2023-04-01T21:37:54.728Z,11.13
2023-04-01T21:40:44.555Z,11.15
2023-04-01T21:43:27.936Z,11.13
2023-04-01T21:46:17.499Z,11.12
2023-04-01T21:49:08.955Z,11.07
2023-04-01T21:52:13.505Z,11.05
2023-04-01T21:55:08.822Z,11.04
2023-04-01T21:58:18.657Z,11.05
2023-04-01T22:00:55.247Z,11.07
2023-04-01T22:03:51.818Z,11.08
2023-04-01T22:06:27.303Z,11.09
2023-04-01T22:09:04.545Z,11.07
2023-04-01T22:11:55.593Z,11.04
2023-04-01T22:14:33.119Z,11.03
2023-04-01T22:17:06.653Z,11.00
2023-04-01T22:19:47.681Z,10.94
2023-04-01T22:22:22.096Z,10.93
2023-04-01T22:25:02.538Z,10.91
2023-04-01T22:27:36.590Z,10.92
2023-04-01T22:30:16.280Z,10.92
2023-04-01T22:32:47.014Z,10.92
2023-04-01T22:35:32.523Z,10.89
2023-04-01T22:38:08.732Z,10.87
2023-04-01T22:40:44.045Z,10.88
2023-04-01T22:43:14.877Z,10.84
2023-04-01T22:45:58.138Z,10.82
2023-04-01T22:48:34.872Z,10.81
2023-04-01T22:51:09.228Z,10.81
2023-04-01T22:53:55.875Z,10.80
2023-04-01T22:56:30.944Z,10.75
2023-04-01T22:59:04.971Z,10.73
2023-04-01T23:01:40.639Z,10.73
2023-04-01T23:04:15.481Z,10.74
2023-04-01T23:06:48.461Z,10.72
2023-04-01T23:09:20.319Z,10.70
2023-04-01T23:11:53.782Z,10.70
2023-04-01T23:14:49.033Z,10.68
2023-04-01T23:17:52.234Z,10.55
2023-04-01T23:20:32.912Z,10.62
2023-04-01T23:23:19.661Z,10.61
2023-04-01T23:25:57.571Z,10.58
2023-04-01T23:28:46.149Z,10.57
2023-04-01T23:31:30.498Z,10.55
2023-04-01T23:34:00.845Z,10.54
2023-04-01T23:36:29.291Z,10.52
2023-04-01T23:38:57.733Z,10.55
2023-04-01T23:41:29.129Z,10.57
2023-04-01T23:44:02.260Z,10.54
2023-04-01T23:46:32.243Z,10.54
2023-04-01T23:49:00.320Z,10.56
2023-04-01T23:51:30.162Z,10.54
2023-04-01T23:54:02.972Z,10.57
2023-04-01T23:56:37.635Z,10.56
2023-04-01T23:59:06.809Z,10.54
